createdAt,value
2022-07-29T00:00:53.813Z,100310.78
2022-07-29T00:03:20.521Z,100309.91
2022-07-29T00:05:47.149Z,100318.75
2022-07-29T00:08:13.652Z,100329.25
2022-07-29T00:10:40.286Z,100320.50
2022-07-29T00:13:07.001Z,100326.72
2022-07-29T00:15:33.977Z,100322.28
2022-07-29T00:18:00.575Z,100320.50
2022-07-29T00:20:27.693Z,100326.75
2022-07-29T00:22:54.377Z,100325.03
2022-07-29T00:25:20.982Z,100325.06
2022-07-29T00:27:47.699Z,100327.63
2022-07-29T00:30:14.444Z,100326.69
2022-07-29T00:32:41.080Z,100314.28
2022-07-29T00:35:27.327Z,100316.72
2022-07-29T00:37:53.822Z,100325.34
2022-07-29T00:40:23.610Z,100316.44
2022-07-29T00:42:52.519Z,100313.84
2022-07-29T00:45:20.059Z,100314.78
2022-07-29T00:47:47.470Z,100313.06
2022-07-29T00:50:15.397Z,100315.72
2022-07-29T00:52:43.661Z,100309.66
2022-07-29T00:55:13.858Z,100310.63
2022-07-29T00:57:42.645Z,100308.06
2022-07-29T01:00:12.165Z,100308.16
2022-07-29T01:02:38.823Z,100311.59
2022-07-29T01:05:06.914Z,100313.47
2022-07-29T01:07:38.243Z,100312.59
2022-07-29T01:10:07.431Z,100317.09
2022-07-29T01:12:35.468Z,100313.66
2022-07-29T01:15:04.334Z,100312.84
2022-07-29T01:17:52.429Z,100313.72
2022-07-29T01:20:52.473Z,100317.31
2022-07-29T01:23:40.999Z,100318.25
2022-07-29T01:26:29.995Z,100312.97
2022-07-29T01:29:38.788Z,100303.28
2022-07-29T01:32:28.439Z,100302.47
2022-07-29T01:35:01.169Z,100302.56
2022-07-29T01:37:49.498Z,100300.06
2022-07-29T01:40:28.110Z,100294.81
2022-07-29T01:42:58.025Z,100301.94
2022-07-29T01:45:33.017Z,100294.91
2022-07-29T01:48:17.494Z,100295.81
2022-07-29T01:50:52.988Z,100293.19
2022-07-29T01:53:36.446Z,100285.19
2022-07-29T01:56:05.828Z,100293.97
2022-07-29T01:58:36.059Z,100279.94
2022-07-29T02:01:05.252Z,100286.16
2022-07-29T02:03:34.411Z,100282.63
2022-07-29T02:06:04.170Z,100280.75
2022-07-29T02:08:33.257Z,100273.59
2022-07-29T02:11:01.638Z,100279.66
2022-07-29T02:13:32.101Z,100284.03
2022-07-29T02:16:00.682Z,100275.28
2022-07-29T02:18:31.416Z,100275.22
2022-07-29T02:21:01.829Z,100274.31
2022-07-29T02:23:31.930Z,100269.91
2022-07-29T02:26:18.833Z,100269.94
2022-07-29T02:28:47.742Z,100277.94
2022-07-29T02:31:15.562Z,100280.56
2022-07-29T02:33:44.037Z,100274.41
2022-07-29T02:36:11.885Z,100278.81
2022-07-29T02:38:53.618Z,100282.34
2022-07-29T02:41:31.189Z,100273.56
2022-07-29T02:44:04.636Z,100274.50
2022-07-29T02:46:35.156Z,100274.50
2022-07-29T02:49:17.889Z,100276.25
2022-07-29T02:51:50.417Z,100282.41
2022-07-29T02:54:32.115Z,100284.28
2022-07-29T02:57:04.334Z,100275.50
2022-07-29T02:59:35.227Z,100271.09
2022-07-29T03:02:03.521Z,100282.59
2022-07-29T03:04:33.472Z,100280.00
2022-07-29T03:07:01.784Z,100282.66
2022-07-29T03:09:29.124Z,100288.84
2022-07-29T03:11:58.076Z,100277.44
2022-07-29T03:14:25.362Z,100286.25
2022-07-29T03:16:53.107Z,100278.38
2022-07-29T03:19:21.480Z,100295.09
2022-07-29T03:21:48.263Z,100287.16
2022-07-29T03:24:33.326Z,100292.44
2022-07-29T03:27:00.577Z,100292.44
2022-07-29T03:29:34.034Z,100285.41
2022-07-29T03:32:03.379Z,100290.66
2022-07-29T03:34:31.062Z,100289.72
2022-07-29T03:36:57.710Z,100289.66
2022-07-29T03:39:28.579Z,100300.19
2022-07-29T03:41:59.448Z,100284.19
2022-07-29T03:44:28.311Z,100291.97
2022-07-29T03:46:59.177Z,100298.56
2022-07-29T03:49:27.776Z,100296.41
2022-07-29T03:51:55.025Z,100294.03
2022-07-29T03:54:22.031Z,100308.09
2022-07-29T03:56:53.200Z,100307.66
2022-07-29T03:59:22.582Z,100302.19
2022-07-29T04:01:49.928Z,100303.72
2022-07-29T04:04:16.939Z,100299.63
2022-07-29T04:06:46.209Z,100309.63
2022-07-29T04:09:15.444Z,100309.56
2022-07-29T04:11:57.039Z,100313.00
2022-07-29T04:14:30.276Z,100313.22
2022-07-29T04:16:56.970Z,100309.88
2022-07-29T04:19:23.795Z,100314.97
2022-07-29T04:21:50.572Z,100305.97
2022-07-29T04:24:17.836Z,100308.44
2022-07-29T04:26:46.126Z,100310.84
2022-07-29T04:29:12.990Z,100317.47
2022-07-29T04:31:39.555Z,100302.78
2022-07-29T04:34:06.299Z,100303.63
2022-07-29T04:36:33.018Z,100300.31
2022-07-29T04:39:01.969Z,100307.47
2022-07-29T04:41:33.016Z,100308.16
2022-07-29T04:44:02.301Z,100308.25
2022-07-29T04:46:29.065Z,100303.50
2022-07-29T04:48:55.817Z,100304.25
2022-07-29T04:51:22.500Z,100311.94
2022-07-29T04:53:49.106Z,100320.28
2022-07-29T04:56:15.640Z,100317.00
2022-07-29T04:58:42.177Z,100298.88
2022-07-29T05:01:08.764Z,100310.25
2022-07-29T05:03:35.349Z,100302.66
2022-07-29T05:06:02.016Z,100308.00
2022-07-29T05:08:28.519Z,100304.81
2022-07-29T05:10:55.138Z,100298.84
2022-07-29T05:13:21.681Z,100296.88
2022-07-29T05:15:49.887Z,100298.84
2022-07-29T05:32:30.882Z,100303.25
2022-07-29T05:34:57.981Z,100303.50
2022-07-29T05:37:24.829Z,100301.13
2022-07-29T05:39:56.854Z,100299.22
2022-07-29T05:42:24.846Z,100294.47
2022-07-29T05:44:52.014Z,100298.72
2022-07-29T05:47:18.793Z,100298.16
2022-07-29T05:49:45.364Z,100292.69
2022-07-29T05:52:12.066Z,100293.75
2022-07-29T05:54:38.710Z,100295.66
2022-07-29T05:57:06.473Z,100289.91
2022-07-29T05:59:39.430Z,100298.13
2022-07-29T06:02:09.069Z,100301.50
2022-07-29T06:04:35.782Z,100308.53
2022-07-29T06:07:02.816Z,100309.91
2022-07-29T06:09:29.959Z,100311.25
2022-07-29T06:11:58.960Z,100303.13
2022-07-29T06:14:28.883Z,100299.38
2022-07-29T06:16:56.258Z,100300.69
2022-07-29T06:19:23.069Z,100302.94
2022-07-29T06:21:51.250Z,100302.44
2022-07-29T06:24:18.754Z,100304.78
2022-07-29T06:26:45.827Z,100302.25
2022-07-29T06:29:12.729Z,100301.56
2022-07-29T06:31:40.181Z,100300.13
2022-07-29T06:34:07.027Z,100298.47
2022-07-29T06:36:37.891Z,100298.63
2022-07-29T06:39:07.986Z,100298.44
2022-07-29T06:41:34.945Z,100304.63
2022-07-29T06:44:01.495Z,100311.31
2022-07-29T06:46:28.731Z,100311.72
2022-07-29T06:48:55.583Z,100311.94
2022-07-29T06:51:24.106Z,100313.66
2022-07-29T06:53:59.322Z,100310.22
2022-07-29T06:56:30.847Z,100311.72
2022-07-29T06:58:57.460Z,100305.97
2022-07-29T07:01:24.078Z,100310.69
2022-07-29T07:03:50.754Z,100308.09
2022-07-29T07:06:17.741Z,100303.84
2022-07-29T07:08:44.714Z,100311.63
2022-07-29T07:11:13.132Z,100309.09
2022-07-29T07:13:39.774Z,100306.41
2022-07-29T07:16:06.828Z,100300.28
2022-07-29T07:18:33.486Z,100307.28
2022-07-29T07:21:00.047Z,100302.91
2022-07-29T07:23:26.617Z,100303.84
2022-07-29T07:25:53.442Z,100305.88
2022-07-29T07:28:24.513Z,100308.03
2022-07-29T07:30:53.169Z,100299.25
2022-07-29T07:33:20.865Z,100291.28
2022-07-29T07:35:47.758Z,100296.13
2022-07-29T07:38:14.313Z,100300.56
2022-07-29T07:40:42.860Z,100294.38
2022-07-29T07:43:10.567Z,100305.00
2022-07-29T07:45:38.451Z,100292.69
2022-07-29T07:48:05.807Z,100298.47
2022-07-29T07:50:33.790Z,100296.63
2022-07-29T07:53:02.842Z,100290.16
2022-07-29T07:55:30.714Z,100291.19
2022-07-29T07:58:16.962Z,100294.94
2022-07-29T08:00:43.598Z,100292.16
2022-07-29T08:03:16.798Z,100288.28
2022-07-29T08:05:44.614Z,100289.97
2022-07-29T08:08:12.263Z,100291.78
2022-07-29T08:10:54.096Z,100291.34
2022-07-29T08:13:22.207Z,100294.63
2022-07-29T08:15:58.487Z,100301.78
2022-07-29T08:18:26.292Z,100284.66
2022-07-29T08:20:52.887Z,100299.97
2022-07-29T08:23:20.163Z,100298.38
2022-07-29T08:25:50.045Z,100291.09
2022-07-29T08:28:18.222Z,100289.53
2022-07-29T08:30:44.993Z,100290.50
2022-07-29T08:33:13.191Z,100288.13
2022-07-29T08:35:39.824Z,100288.59
2022-07-29T08:38:06.707Z,100293.75
2022-07-29T08:40:33.451Z,100289.91
2022-07-29T08:43:06.477Z,100291.13
2022-07-29T08:45:44.795Z,100291.56
2022-07-29T08:48:16.176Z,100287.50
2022-07-29T08:50:46.278Z,100285.13
2022-07-29T08:53:15.559Z,100289.66
2022-07-29T08:55:49.097Z,100292.72
2022-07-29T08:58:16.384Z,100284.00
2022-07-29T09:00:46.925Z,100283.13
2022-07-29T09:03:19.225Z,100282.78
2022-07-29T09:05:49.100Z,100286.22
2022-07-29T09:08:17.567Z,100282.94
2022-07-29T09:10:45.286Z,100267.44
2022-07-29T09:13:12.040Z,100284.13
2022-07-29T09:15:38.518Z,100277.88
2022-07-29T09:18:05.031Z,100276.16
2022-07-29T09:20:51.518Z,100285.09
2022-07-29T09:23:24.143Z,100276.25
2022-07-29T09:25:51.596Z,100278.41
2022-07-29T09:28:18.846Z,100274.66
2022-07-29T09:30:56.492Z,100277.16
2022-07-29T09:33:24.165Z,100272.97
2022-07-29T09:36:08.086Z,100271.72
2022-07-29T09:38:36.233Z,100262.47
2022-07-29T09:41:06.515Z,100263.84
2022-07-29T09:43:34.734Z,100266.47
2022-07-29T09:46:14.356Z,100258.72
2022-07-29T09:48:41.048Z,100258.22
2022-07-29T09:51:25.489Z,100269.94
2022-07-29T09:53:55.331Z,100252.97
2022-07-29T09:56:39.237Z,100245.56
2022-07-29T09:59:10.170Z,100247.13
2022-07-29T10:01:37.029Z,100253.78
2022-07-29T10:04:03.802Z,100244.53
2022-07-29T10:06:30.371Z,100255.63
2022-07-29T10:09:09.207Z,100250.03
2022-07-29T10:11:49.158Z,100236.81
2022-07-29T10:14:22.898Z,100243.97
2022-07-29T10:16:49.457Z,100234.00
2022-07-29T10:19:16.317Z,100243.91
2022-07-29T10:21:45.072Z,100230.50
2022-07-29T10:24:14.844Z,100239.25
2022-07-29T10:26:43.932Z,100234.41
2022-07-29T10:29:10.625Z,100238.00
2022-07-29T10:31:50.946Z,100227.50
2022-07-29T10:34:32.702Z,100237.44
2022-07-29T10:37:20.585Z,100229.53
2022-07-29T10:40:35.838Z,100241.72
2022-07-29T10:43:23.226Z,100226.78
2022-07-29T10:45:58.102Z,100230.53
2022-07-29T10:48:25.139Z,100230.38
2022-07-29T10:50:56.334Z,100227.94
2022-07-29T10:53:46.278Z,100221.13
2022-07-29T10:56:31.935Z,100226.84
2022-07-29T10:59:21.504Z,100225.56
2022-07-29T11:01:59.875Z,100223.72
2022-07-29T11:04:46.989Z,100214.44
2022-07-29T11:07:15.246Z,100217.91
2022-07-29T11:09:42.367Z,100218.09
2022-07-29T11:12:39.268Z,100219.81
2022-07-29T11:15:18.243Z,100218.03
2022-07-29T11:18:01.620Z,100217.16
2022-07-29T11:20:49.851Z,100211.19
2022-07-29T11:23:20.813Z,100213.47
2022-07-29T11:26:23.425Z,100214.41
2022-07-29T11:29:04.266Z,100210.22
2022-07-29T11:31:45.416Z,100224.28
2022-07-29T11:34:28.205Z,100212.50
2022-07-29T11:37:14.455Z,100223.84
2022-07-29T11:39:43.500Z,100211.31
2022-07-29T11:42:32.347Z,100215.41
2022-07-29T11:45:43.489Z,100222.91
2022-07-29T11:48:29.316Z,100219.75
2022-07-29T11:50:51.860Z,100215.09
2022-07-29T11:53:18.590Z,100214.31
2022-07-29T11:55:51.331Z,100214.66
2022-07-29T11:58:25.126Z,100214.75
2022-07-29T12:00:53.316Z,100221.69
2022-07-29T12:03:33.427Z,100218.72
2022-07-29T12:06:02.556Z,100219.09
2022-07-29T12:08:29.268Z,100219.75
2022-07-29T12:10:55.937Z,100216.03
2022-07-29T12:13:22.931Z,100201.78
2022-07-29T12:16:04.179Z,100198.25
2022-07-29T12:18:30.825Z,100196.38
2022-07-29T12:20:59.145Z,100202.81
2022-07-29T12:23:34.293Z,100204.69
2022-07-29T12:26:07.418Z,100201.13
2022-07-29T12:28:40.101Z,100190.31
2022-07-29T12:31:08.254Z,100195.06
2022-07-29T12:33:36.153Z,100199.00
2022-07-29T12:36:10.306Z,100184.31
2022-07-29T12:38:41.236Z,100180.28
2022-07-29T12:41:08.015Z,100181.88
2022-07-29T12:43:34.612Z,100180.81
2022-07-29T12:46:14.359Z,100171.28
2022-07-29T12:48:43.653Z,100182.75
2022-07-29T12:51:13.426Z,100173.13
2022-07-29T12:53:40.462Z,100164.28
2022-07-29T12:56:45.365Z,100174.41
2022-07-29T12:59:16.751Z,100160.59
2022-07-29T13:01:44.000Z,100160.88
2022-07-29T13:04:10.775Z,100160.16
2022-07-29T13:06:45.731Z,100157.94
2022-07-29T13:09:23.539Z,100159.88
2022-07-29T13:11:54.377Z,100149.31
2022-07-29T13:14:35.246Z,100145.66
2022-07-29T13:17:11.126Z,100139.38
2022-07-29T13:19:44.704Z,100150.03
2022-07-29T13:22:13.568Z,100149.22
2022-07-29T13:24:58.033Z,100143.34
2022-07-29T13:27:27.531Z,100139.25
2022-07-29T13:29:57.559Z,100138.38
2022-07-29T13:32:27.825Z,100138.59
2022-07-29T13:34:57.398Z,100134.25
2022-07-29T13:37:24.017Z,100134.63
2022-07-29T13:39:52.697Z,100124.06
2022-07-29T13:42:19.962Z,100133.59
2022-07-29T13:44:46.671Z,100123.78
2022-07-29T13:47:13.960Z,100125.28
2022-07-29T13:49:40.797Z,100124.25
2022-07-29T13:52:08.460Z,100123.16
2022-07-29T13:54:42.030Z,100124.53
2022-07-29T13:57:11.730Z,100131.66
2022-07-29T13:59:39.131Z,100127.69
2022-07-29T14:02:06.534Z,100122.00
2022-07-29T14:04:33.647Z,100125.69
2022-07-29T14:07:00.360Z,100131.25
2022-07-29T14:09:41.165Z,100134.25
2022-07-29T14:12:09.026Z,100131.13
2022-07-29T14:14:37.490Z,100123.91
2022-07-29T14:17:04.645Z,100132.34
2022-07-29T14:19:33.049Z,100117.41
2022-07-29T14:22:00.099Z,100115.16
2022-07-29T14:24:27.029Z,100114.75
2022-07-29T14:26:53.720Z,100119.22
2022-07-29T14:29:20.341Z,100125.84
2022-07-29T14:31:47.007Z,100116.72
2022-07-29T14:34:13.684Z,100110.66
2022-07-29T14:36:40.333Z,100112.53
2022-07-29T14:39:06.853Z,100111.31
2022-07-29T14:41:33.795Z,100109.22
2022-07-29T14:44:03.128Z,100105.84
2022-07-29T14:46:29.853Z,100104.19
2022-07-29T14:48:56.548Z,100117.56
2022-07-29T14:51:23.141Z,100112.44
2022-07-29T14:53:49.718Z,100111.81
2022-07-29T14:56:36.006Z,100107.06
2022-07-29T14:59:02.901Z,100110.00
2022-07-29T15:01:30.131Z,100105.63
2022-07-29T15:03:59.677Z,100097.31
2022-07-29T15:06:27.422Z,100105.34
2022-07-29T15:08:54.030Z,100094.53
2022-07-29T15:11:21.089Z,100086.97
2022-07-29T15:13:47.790Z,100090.31
2022-07-29T15:16:14.294Z,100084.72
2022-07-29T15:18:40.977Z,100085.31
2022-07-29T15:21:08.541Z,100076.22
2022-07-29T15:23:38.017Z,100075.38
2022-07-29T15:26:05.560Z,100080.00
2022-07-29T15:28:32.163Z,100076.13
2022-07-29T15:30:59.291Z,100075.41
2022-07-29T15:33:26.662Z,100079.00
2022-07-29T15:35:54.159Z,100079.59
2022-07-29T15:38:20.730Z,100072.78
2022-07-29T15:40:55.824Z,100078.84
2022-07-29T15:43:22.814Z,100076.06
2022-07-29T15:46:08.167Z,100068.41
2022-07-29T15:48:39.049Z,100076.06
2022-07-29T15:51:05.904Z,100066.34
2022-07-29T15:53:32.499Z,100070.00
2022-07-29T15:56:02.168Z,100067.94
2022-07-29T15:58:28.978Z,100067.91
2022-07-29T16:00:55.700Z,100066.63
2022-07-29T16:03:22.920Z,100064.16
2022-07-29T16:05:49.495Z,100065.78
2022-07-29T16:08:16.012Z,100060.34
2022-07-29T16:10:42.552Z,100063.94
2022-07-29T16:13:09.194Z,100060.88
2022-07-29T16:15:35.771Z,100062.31
2022-07-29T16:18:02.315Z,100056.69
2022-07-29T16:20:29.661Z,100057.66
2022-07-29T16:22:56.188Z,100055.16
2022-07-29T16:25:38.414Z,100056.50
2022-07-29T16:28:09.511Z,100057.75
2022-07-29T16:30:36.430Z,100054.41
2022-07-29T16:33:07.790Z,100057.75
2022-07-29T16:35:39.763Z,100046.47
2022-07-29T16:38:06.666Z,100053.81
2022-07-29T16:40:33.404Z,100044.94
2022-07-29T16:43:00.004Z,100046.72
2022-07-29T16:45:26.788Z,100048.25
2022-07-29T16:48:00.956Z,100044.69
2022-07-29T16:50:28.838Z,100041.94
2022-07-29T16:52:56.081Z,100041.25
2022-07-29T16:55:22.659Z,100038.91
2022-07-29T16:57:52.598Z,100043.75
2022-07-29T17:00:19.966Z,100037.25
2022-07-29T17:02:46.569Z,100048.09
2022-07-29T17:05:13.125Z,100039.47
2022-07-29T17:07:40.843Z,100031.38
2022-07-29T17:10:08.433Z,100033.19
2022-07-29T17:12:36.532Z,100030.03
2022-07-29T17:15:04.693Z,100027.00
2022-07-29T17:17:39.468Z,100025.88
2022-07-29T17:20:18.110Z,100022.97
2022-07-29T17:22:44.646Z,100026.75
2022-07-29T17:25:11.736Z,100016.66
2022-07-29T17:27:47.414Z,100018.59
2022-07-29T17:30:14.011Z,100027.28
2022-07-29T17:32:40.553Z,100024.22
2022-07-29T17:35:28.192Z,100028.16
2022-07-29T17:37:54.969Z,100024.50
2022-07-29T17:40:21.806Z,100038.34
2022-07-29T17:42:48.343Z,100028.63
2022-07-29T17:45:14.896Z,100028.44
2022-07-29T17:47:41.875Z,100037.25
2022-07-29T17:50:08.668Z,100045.94
2022-07-29T17:52:35.234Z,100043.69
2022-07-29T17:55:02.536Z,100042.41
2022-07-29T17:57:29.107Z,100042.91
2022-07-29T17:59:55.610Z,100047.88
2022-07-29T18:02:22.275Z,100052.75
2022-07-29T18:04:51.682Z,100049.66
2022-07-29T18:07:18.615Z,100046.56
2022-07-29T18:09:45.310Z,100042.38
2022-07-29T18:12:11.840Z,100043.50
2022-07-29T18:14:38.653Z,100048.91
2022-07-29T18:17:05.161Z,100049.88
2022-07-29T18:19:31.696Z,100056.38
2022-07-29T18:22:03.172Z,100060.88
2022-07-29T18:24:31.909Z,100067.31
2022-07-29T18:26:58.612Z,100071.03
2022-07-29T18:29:25.643Z,100066.59
2022-07-29T18:31:52.138Z,100073.03
2022-07-29T18:34:18.667Z,100062.28
2022-07-29T18:36:45.926Z,100060.81
2022-07-29T18:39:20.047Z,100062.66
2022-07-29T18:41:50.381Z,100065.00
2022-07-29T18:44:18.257Z,100062.72
2022-07-29T18:46:47.924Z,100063.16
2022-07-29T18:49:23.291Z,100065.41
2022-07-29T18:51:50.623Z,100063.09
2022-07-29T18:54:17.645Z,100065.22
2022-07-29T18:56:45.806Z,100060.03
2022-07-29T18:59:16.749Z,100063.75
2022-07-29T19:01:44.282Z,100062.16
2022-07-29T19:04:10.988Z,100065.88
2022-07-29T19:06:37.522Z,100059.09
2022-07-29T19:09:04.355Z,100062.91
2022-07-29T19:11:31.031Z,100063.44
2022-07-29T19:13:57.694Z,100064.78
2022-07-29T19:16:24.275Z,100065.44
2022-07-29T19:18:50.877Z,100055.38
2022-07-29T19:21:17.527Z,100059.63
2022-07-29T19:24:05.176Z,100061.88
2022-07-29T19:26:30.906Z,100061.66
2022-07-29T19:28:57.538Z,100055.13
2022-07-29T19:31:24.129Z,100059.13
2022-07-29T19:33:50.913Z,100055.97
2022-07-29T19:36:17.440Z,100057.22
2022-07-29T19:38:43.931Z,100056.72
2022-07-29T19:41:10.499Z,100054.41
2022-07-29T19:43:49.653Z,100057.38
2022-07-29T19:46:18.884Z,100051.53
2022-07-29T19:48:45.687Z,100047.53
2022-07-29T19:51:12.301Z,100044.34
2022-07-29T19:53:38.976Z,100034.78
2022-07-29T19:56:05.601Z,100036.06
2022-07-29T19:58:35.880Z,100038.94
2022-07-29T20:01:02.777Z,100043.53
2022-07-29T20:03:39.712Z,100041.53
2022-07-29T20:06:06.776Z,100044.63
2022-07-29T20:08:33.608Z,100041.44
2022-07-29T20:11:00.110Z,100048.78
2022-07-29T20:13:26.667Z,100055.34
2022-07-29T20:15:53.443Z,100054.63
2022-07-29T20:18:20.028Z,100049.59
2022-07-29T20:20:48.279Z,100055.22
2022-07-29T20:23:16.399Z,100052.03
2022-07-29T20:25:42.946Z,100046.94
2022-07-29T20:28:09.759Z,100044.59
2022-07-29T20:30:38.542Z,100049.44
2022-07-29T20:33:05.817Z,100048.06
2022-07-29T20:35:32.660Z,100058.88
2022-07-29T20:38:00.437Z,100059.81
2022-07-29T20:40:27.821Z,100063.09
2022-07-29T20:42:55.226Z,100071.13
2022-07-29T20:45:23.469Z,100070.47
2022-07-29T20:47:51.803Z,100069.63
2022-07-29T20:50:23.729Z,100065.16
2022-07-29T20:52:51.087Z,100081.28
2022-07-29T20:55:17.724Z,100078.91
2022-07-29T20:57:45.761Z,100065.66
2022-07-29T21:00:12.682Z,100069.28
2022-07-29T21:02:39.485Z,100071.06
2022-07-29T21:05:06.505Z,100077.34
2022-07-29T21:07:34.235Z,100077.41
2022-07-29T21:10:00.812Z,100077.47
2022-07-29T21:12:29.404Z,100069.59
2022-07-29T21:14:56.019Z,100072.28
2022-07-29T21:17:22.928Z,100058.69
2022-07-29T21:19:52.641Z,100050.69
2022-07-29T21:22:23.323Z,100049.97
2022-07-29T21:24:50.037Z,100044.97
2022-07-29T21:27:38.101Z,100049.75
2022-07-29T21:30:07.181Z,100050.25
2022-07-29T21:32:33.911Z,100058.69
2022-07-29T21:35:00.836Z,100045.63
2022-07-29T21:37:28.078Z,100041.44
2022-07-29T21:39:54.800Z,100040.88
2022-07-29T21:42:21.625Z,100041.31
2022-07-29T21:44:48.232Z,100036.06
2022-07-29T21:47:14.807Z,100031.78
2022-07-29T21:49:42.776Z,100033.81
2022-07-29T21:52:09.400Z,100040.31
2022-07-29T21:54:36.487Z,100040.38
2022-07-29T21:57:03.876Z,100049.06
2022-07-29T21:59:31.582Z,100039.22
2022-07-29T22:02:01.077Z,100046.59
2022-07-29T22:04:31.715Z,100049.19
2022-07-29T22:07:00.971Z,100044.66
2022-07-29T22:09:28.358Z,100046.19
2022-07-29T22:11:56.323Z,100040.38
2022-07-29T22:14:23.102Z,100038.53
2022-07-29T22:16:49.820Z,100033.28
2022-07-29T22:19:16.527Z,100031.03
2022-07-29T22:21:43.276Z,100032.31
2022-07-29T22:24:12.503Z,100037.97
2022-07-29T22:26:39.156Z,100036.41
2022-07-29T22:29:06.507Z,100038.34
2022-07-29T22:31:33.081Z,100034.06
2022-07-29T22:33:59.605Z,100027.78
2022-07-29T22:36:26.346Z,100018.66
2022-07-29T22:38:53.011Z,100008.06
2022-07-29T22:41:19.590Z,100012.88
2022-07-29T22:43:46.275Z,100008.69
2022-07-29T22:46:12.912Z,100002.94
2022-07-29T22:48:39.569Z,100005.84
2022-07-29T22:51:07.162Z,100004.16
2022-07-29T22:53:33.750Z,100005.06
2022-07-29T22:56:00.304Z,99988.25
2022-07-29T22:58:26.960Z,99985.66
2022-07-29T23:00:53.901Z,99984.75
2022-07-29T23:03:21.127Z,99988.41
2022-07-29T23:05:47.826Z,99991.06
2022-07-29T23:08:14.610Z,99992.56
2022-07-29T23:10:41.162Z,99992.50
2022-07-29T23:13:07.660Z,99990.88
2022-07-29T23:15:34.194Z,99982.00
2022-07-29T23:18:00.979Z,99985.66
2022-07-29T23:20:27.713Z,99973.34
2022-07-29T23:22:54.416Z,99984.06
2022-07-29T23:25:21.282Z,99972.72
2022-07-29T23:27:47.860Z,99975.47
2022-07-29T23:30:14.371Z,99971.13
2022-07-29T23:32:40.954Z,99967.69
2022-07-29T23:35:08.357Z,99971.34
2022-07-29T23:37:35.054Z,99970.59
2022-07-29T23:40:01.591Z,99970.69
2022-07-29T23:42:28.092Z,99970.78
2022-07-29T23:44:54.685Z,99962.84
2022-07-29T23:47:23.447Z,99965.50
2022-07-29T23:49:50.097Z,99964.75
2022-07-29T23:52:17.501Z,99958.59
2022-07-29T23:54:44.184Z,99963.97
2022-07-29T23:57:10.718Z,99954.16
2022-07-29T23:59:37.396Z,99952.38
